PWSweather.com
Personal Weather Stations
Station Observations

ChardChardGB

Lat: 50.877408, Lon: -2.94964741

Elevation: 341

Station Type: WS3083

http://www.merriott-astro.co.uk/weather/index.htm

High Low Average
Temperature 65.7°F18.7°C 56.5°F13.6°C 60.7°F15.9°C
Dew Point 46.9°F8.3°C 44.7°F7.1°C 46.2°F7.9°C
Winds 5.7 mph 9.2 kmh Calm Calm 2.0 mph SSE3.2 kmh SSE
Wind Gusts 10.7 mph17.2 kmh -- 4.0 mph6.4 kmh
Humidity 69% 50% 59%
Pressure 30.30 in1026.1 mb 30.27 in1025.1 mb -
Precipitation 386.10 in9806.9 mm - -
Hour Temp Dew Point Humidity Winds Wind Gusts Pressure Precip Precip Rate Daily Precip Total
06:50 PM 65.7°F18.7°C 46.5°F8.1°C 50% 5.7 mph S9.2 kmh S 9.2 mph14.8 kmh 30.28 in1025.4 mb 0.00 in0.0 mm 0.00 in0.0 mm 386.10 in9806.9 mm
07:00 PM 65.3°F18.5°C 46.2°F7.9°C 50% 5.2 mph SSW8.4 kmh SSW 9.2 mph14.8 kmh 30.28 in1025.4 mb 0.00 in0.0 mm 0.00 in0.0 mm 386.10 in9806.9 mm
07:10 PM 64.8°F18.2°C 45.7°F7.6°C 50% 4.1 mph S6.6 kmh S 8.3 mph13.4 kmh 30.28 in1025.4 mb 0.00 in0.0 mm 0.00 in0.0 mm 386.10 in9806.9 mm
07:20 PM 64.2°F17.9°C 45.7°F7.6°C 51% 4.0 mph SE6.4 kmh SE 6.9 mph11.1 kmh 30.27 in1025.1 mb 0.00 in0.0 mm 0.00 in0.0 mm 386.10 in9806.9 mm
07:30 PM 64.0°F17.8°C 45.0°F7.2°C 50% 4.2 mph ESE6.8 kmh ESE 7.6 mph12.2 kmh 30.28 in1025.4 mb 0.00 in0.0 mm 0.00 in0.0 mm 386.10 in9806.9 mm
07:40 PM 63.9°F17.7°C 44.9°F7.2°C 50% 4.9 mph SSE7.9 kmh SSE 8.3 mph13.4 kmh 30.27 in1025.1 mb 0.00 in0.0 mm 0.00 in0.0 mm 386.10 in9806.9 mm
07:50 PM 63.7°F17.6°C 44.7°F7.1°C 50% 4.0 mph S6.4 kmh S 10.7 mph17.2 kmh 30.27 in1025.1 mb 0.00 in0.0 mm 0.00 in0.0 mm 386.10 in9806.9 mm
08:00 PM 63.5°F17.5°C 45.1°F7.3°C 51% 4.5 mph SE7.2 kmh SE 6.9 mph11.1 kmh 30.28 in1025.4 mb 0.00 in0.0 mm 0.00 in0.0 mm 386.10 in9806.9 mm
08:10 PM 63.3°F17.4°C 46.4°F8.0°C 54% 3.5 mph S5.6 kmh S 7.6 mph12.2 kmh 30.28 in1025.4 mb 0.00 in0.0 mm 0.00 in0.0 mm 386.10 in9806.9 mm
08:20 PM 63.3°F17.4°C 46.9°F8.3°C 55% 4.1 mph SSW6.6 kmh SSW 6.9 mph11.1 kmh 30.28 in1025.4 mb 0.00 in0.0 mm 0.00 in0.0 mm 386.10 in9806.9 mm
08:30 PM 63.0°F17.2°C 46.6°F8.1°C 55% 2.9 mph SW4.7 kmh SW 4.5 mph7.2 kmh 30.28 in1025.4 mb 0.00 in0.0 mm 0.00 in0.0 mm 386.10 in9806.9 mm
08:40 PM 62.2°F16.8°C 46.8°F8.2°C 57% 2.1 mph SW3.4 kmh SW 5.4 mph8.7 kmh 30.28 in1025.4 mb 0.00 in0.0 mm 0.00 in0.0 mm 386.10 in9806.9 mm
08:50 PM 61.3°F16.3°C 46.5°F8.1°C 58% 0.3 mph WSW0.5 kmh WSW 2.2 mph3.5 kmh 30.29 in1025.7 mb 0.00 in0.0 mm 0.00 in0.0 mm 386.10 in9806.9 mm
09:00 PM 60.6°F15.9°C 46.7°F8.2°C 60% 0.4 mph S0.6 kmh S 2.2 mph3.5 kmh 30.28 in1025.4 mb 0.00 in0.0 mm 0.00 in0.0 mm 386.10 in9806.9 mm
09:10 PM 60.6°F15.9°C 46.7°F8.2°C 60% 1.1 mph SW1.8 kmh SW 4.5 mph7.2 kmh 30.29 in1025.7 mb 0.00 in0.0 mm 0.00 in0.0 mm 386.10 in9806.9 mm
09:20 PM 60.1°F15.6°C 46.6°F8.1°C 61% Calm Calm -- 30.29 in1025.7 mb 0.00 in0.0 mm 0.00 in0.0 mm 386.10 in9806.9 mm
09:30 PM 60.1°F15.6°C 46.6°F8.1°C 61% Calm Calm -- 30.28 in1025.4 mb 0.00 in0.0 mm 0.00 in0.0 mm 386.10 in9806.9 mm
09:40 PM 59.9°F15.5°C 46.4°F8.0°C 61% 0.3 mph SSW0.5 kmh SSW 1.6 mph2.6 kmh 30.29 in1025.7 mb 0.00 in0.0 mm 0.00 in0.0 mm 386.10 in9806.9 mm
09:50 PM 59.7°F15.4°C 46.7°F8.2°C 62% 0.8 mph SSW1.3 kmh SSW 3.1 mph5.0 kmh 30.28 in1025.4 mb 0.00 in0.0 mm 0.00 in0.0 mm 386.10 in9806.9 mm
10:00 PM 59.4°F15.2°C 46.4°F8.0°C 62% 0.5 mph SSE0.8 kmh SSE 3.1 mph5.0 kmh 30.29 in1025.7 mb 0.00 in0.0 mm 0.00 in0.0 mm 386.10 in9806.9 mm
10:10 PM 58.6°F14.8°C 46.1°F7.8°C 63% Calm Calm -- 30.29 in1025.7 mb 0.00 in0.0 mm 0.00 in0.0 mm 386.10 in9806.9 mm
10:20 PM 58.3°F14.6°C 46.2°F7.9°C 64% 0.3 mph SE0.5 kmh SE 2.2 mph3.5 kmh 30.29 in1025.7 mb 0.00 in0.0 mm 0.00 in0.0 mm 386.10 in9806.9 mm
10:30 PM 57.6°F14.2°C 45.9°F7.7°C 65% 0.3 mph W0.5 kmh W 1.6 mph2.6 kmh 30.29 in1025.7 mb 0.00 in0.0 mm 0.00 in0.0 mm 386.10 in9806.9 mm
10:40 PM 57.4°F14.1°C 46.1°F7.8°C 66% 0.3 mph WSW0.5 kmh WSW 1.6 mph2.6 kmh 30.29 in1025.7 mb 0.00 in0.0 mm 0.00 in0.0 mm 386.10 in9806.9 mm
10:50 PM 57.4°F14.1°C 46.5°F8.1°C 67% Calm Calm -- 30.29 in1025.7 mb 0.00 in0.0 mm 0.00 in0.0 mm 386.10 in9806.9 mm
11:00 PM 57.4°F14.1°C 46.5°F8.1°C 67% 0.5 mph S0.8 kmh S 2.2 mph3.5 kmh 30.30 in1026.1 mb 0.00 in0.0 mm 0.00 in0.0 mm 386.10 in9806.9 mm
11:10 PM 57.4°F14.1°C 46.5°F8.1°C 67% 0.4 mph S0.6 kmh S 3.1 mph5.0 kmh 30.29 in1025.7 mb 0.00 in0.0 mm 0.00 in0.0 mm 386.10 in9806.9 mm
11:20 PM 57.4°F14.1°C 46.5°F8.1°C 67% 2.1 mph S3.4 kmh S 5.4 mph8.7 kmh 30.30 in1026.1 mb 0.00 in0.0 mm 0.00 in0.0 mm 386.10 in9806.9 mm
11:30 PM 57.0°F13.9°C 46.6°F8.1°C 68% 2.6 mph S4.2 kmh S 6.9 mph11.1 kmh 30.29 in1025.7 mb 0.00 in0.0 mm 0.00 in0.0 mm 386.10 in9806.9 mm
11:40 PM 56.7°F13.7°C 46.2°F7.9°C 68% 1.0 mph SE1.6 kmh SE 3.8 mph6.1 kmh 30.30 in1026.1 mb 0.00 in0.0 mm 0.00 in0.0 mm 386.10 in9806.9 mm
11:50 PM 56.5°F13.6°C 46.4°F8.0°C 69% 1.5 mph S2.4 kmh S 3.8 mph6.1 kmh 30.29 in1025.7 mb 0.00 in0.0 mm 0.00 in0.0 mm 386.10 in9806.9 mm